M I D A S
Marine Information and Data Acquisition System
Tripno 474 of the Zeeleeuw from 2002-04-25 11:45:00 to 2002-04-25 15:45:00
Back to CruiseResearch ActivitiesStationsMapUnderway DataData graphs

EquipmentUnitsComment
TimeDGPSUTC
LatitudeDGPSDM.mWGS84
LongitudeDGPSDM.mWGS84
TemperatureSBE03/SBE38deg celciusITS90
ConductivitySBE21S/mITS90
SalinitySBE21 Practical Salinity Units
ChlorophylAChelsea fluorimeterg/lCalibrated in Aceton
Missing or incorrect values are displayed as -999
Sea surface data collected by the RV Zeeleeuw from 2002-04-25 11:45:00 to 2002-04-25 15:45:00
Time Latitude Longitude Temperature Conductivity Salinity ChlorophylA
2002-04-25 11:46:07 51°13.687 2°55.883 12.081225 3.088531 25.855582  
2002-04-25 11:47:07 51°13.69 2°55.803 12.083543 3.18035 26.764385  
2002-04-25 11:48:06 51°13.692 2°55.753 12.372721 3.091134 25.888787  
2002-04-25 11:49:07 51°13.698 2°55.77 12.417721 2.67719 21.892434  
2002-04-25 11:50:07 51°13.708 2°55.758 12.443938 3.000831 24.962651  
2002-04-25 11:51:06 51°13.779 2°55.676 12.619055 2.975204 24.712335  
2002-04-25 11:52:06 51°13.875 2°55.595 12.298801 2.75853 22.617836  
2002-04-25 11:53:06 51°13.983 2°55.522 12.380321 3.041074 25.328024  
2002-04-25 11:54:06 51°14.091 2°55.444 12.342629 2.974302 24.626212  
2002-04-25 11:55:06 51°14.197 2°55.36 12.318953 3.010641 25.015935  
2002-04-25 11:56:06 51°14.289 2°55.221 12.617613 2.917248 24.088692  
2002-04-25 11:57:06 51°14.37 2°55.041 12.106349 3.031862 25.135796  
2002-04-25 11:58:06 51°14.438 2°54.812 11.944855 3.307035 27.913463  
2002-04-25 11:59:06 51°14.452 2°54.519 11.843281 3.484838 29.729135  
2002-04-25 12:00:06 51°14.366 2°54.264 11.867903 3.490349 29.835047  
2002-04-25 12:01:06 51°14.262 2°54.024 11.906686 3.505778 29.98014  
2002-04-25 12:02:06 51°14.16 2°53.78 11.89288 3.511488 30.028659  
2002-04-25 12:03:06 51°14.052 2°53.525 11.858283 3.516698 30.068633  
2002-04-25 12:04:05 51°13.943 2°53.265 11.847796 3.518501 30.110387  
2002-04-25 12:05:06 51°13.841 2°52.984 11.858967 3.520605 30.137332  
2002-04-25 12:06:06 51°13.739 2°52.712 11.842916 3.523411 30.158281  
2002-04-25 12:07:06 51°13.639 2°52.438 11.884358 3.525515 30.185243  
2002-04-25 12:08:06 51°13.537 2°52.162 11.81459 3.532828 30.238234  
2002-04-25 12:09:06 51°13.435 2°51.887 11.80729 3.537037 30.320239  
2002-04-25 12:10:06 51°13.332 2°51.613 11.800764 3.53854 30.33773  
2002-04-25 12:11:06 51°13.229 2°51.342 11.819152 3.539241 30.347596  
2002-04-25 12:12:06 51°13.127 2°51.069 11.816095 3.542748 30.37267  
2002-04-25 12:13:06 51°13.026 2°50.793 11.778537 3.541746 30.373994  
2002-04-25 12:14:06 51°12.922 2°50.515 11.772603 3.540544 30.379807  
2002-04-25 12:15:05 51°12.819 2°50.244 11.787347 3.539442 30.375066  
2002-04-25 12:16:06 51°12.717 2°49.958 11.779039 3.541145 30.375941  
2002-04-25 12:17:06 51°12.619 2°49.674 11.778218 3.541145 30.393212  
2002-04-25 12:18:06 51°12.52 2°49.389 11.8436 3.545153 30.422429  
2002-04-25 12:19:06 51°12.422 2°49.108 11.800354 3.549661 30.444875  
2002-04-25 12:20:06 51°12.324 2°48.825 11.789538 3.551164 30.467518  
2002-04-25 12:21:06 51°12.227 2°48.542 11.774246 3.553769 30.507741  
2002-04-25 12:22:06 51°12.13 2°48.259 11.78689 3.562786 30.586618  
2002-04-25 12:23:06 51°12.048 2°47.96 11.749224 3.565091 30.6189  
2002-04-25 12:24:06 51°11.968 2°47.661 11.771461 3.569199 30.676816  
2002-04-25 12:25:06 51°11.888 2°47.365 11.755298 3.578217 30.753178  
2002-04-25 12:26:06 51°11.807 2°47.069 11.779176 3.582926 30.79878  
2002-04-25 12:27:06 51°11.727 2°46.773 11.73269 3.590841 30.876966  
2002-04-25 12:28:06 51°11.647 2°46.475 11.755937 3.594248 30.91537  
2002-04-25 12:29:06 51°11.565 2°46.178 11.789492 3.603066 31.012705  
2002-04-25 12:30:06 51°11.485 2°45.882 11.849072 3.609979 31.047401  
2002-04-25 12:31:06 51°11.404 2°45.588 11.825082 3.622002 31.115137  
2002-04-25 12:32:06 51°11.32 2°45.291 11.745753 3.631622 31.2418  
2002-04-25 12:33:06 51°11.259 2°44.986 11.809617 3.634028 31.303685  
2002-04-25 12:34:06 51°11.275 2°44.658 11.734426 3.639038 31.324573  
2002-04-25 12:35:06 51°11.293 2°44.327 11.724467 3.641744 31.382855  
2002-04-25 12:36:06 51°11.348 2°44.009 11.695678 3.648958 31.469891  
2002-04-25 12:37:06 51°11.418 2°43.695 11.686994 3.667898 31.676263  
2002-04-25 12:38:06 51°11.484 2°43.379 11.667929 3.675914 31.757277  
2002-04-25 12:39:05 51°11.534 2°43.065 11.655399 3.680725 31.818954  
2002-04-25 12:40:05 51°11.683 2°42.832 11.667838 3.686236 31.875313  
2002-04-25 12:41:06 51°11.731 2°42.611 11.666923 3.691247 31.918777  
2002-04-25 12:42:06 51°11.74 2°42.595 11.662396 3.69305 31.9368  
2002-04-25 12:43:07 51°11.749 2°42.622 11.645428 3.692048 31.934589  
2002-04-25 12:44:06 51°11.755 2°42.647 11.640443 3.691948 31.94511  
2002-04-25 12:45:06 51°11.759 2°42.675 11.645383 3.691447 31.94164  
2002-04-25 12:46:06 51°11.762 2°42.703 11.668478 3.691147 31.932666  
2002-04-25 12:47:06 51°11.765 2°42.732 11.678856 3.69305 31.932074  
2002-04-25 12:48:06 51°11.766 2°42.76 11.671267 3.694353 31.940551  
2002-04-25 12:49:06 51°11.769 2°42.786 11.678034 3.693551 31.936892  
2002-04-25 12:50:06 51°11.772 2°42.809 11.67465 3.694153 31.939974  
2002-04-25 12:51:06 51°11.775 2°42.832 11.709435 3.693852 31.939784  
2002-04-25 12:52:05 51°11.778 2°42.854 11.676753 3.693852 31.937083  
2002-04-25 12:53:05 51°11.781 2°42.876 11.674147 3.693652 31.935156  
2002-04-25 12:54:06 51°11.784 2°42.897 11.669118 3.693551 31.936892  
2002-04-25 12:55:06 51°11.787 2°42.918 11.67209 3.693351 31.93429  
2002-04-25 12:56:06 51°11.79 2°42.939 11.672364 3.693351 31.93294  
2002-04-25 12:57:06 51°11.793 2°42.96 11.676388 3.69305 31.930724  
2002-04-25 12:58:06 51°11.793 2°42.967 11.688319 3.691447 31.913282  
2002-04-25 12:59:06 51°11.782 2°42.926 11.676342 3.691347 31.906249  
2002-04-25 13:00:06 51°11.789 2°42.843 11.681005 3.69285 31.922724  
2002-04-25 13:01:06 51°11.824 2°42.756 11.675153 3.692349 31.918581  
2002-04-25 13:02:06 51°11.871 2°42.679 11.668021 3.690044 31.905189  
2002-04-25 13:03:06 51°11.911 2°42.612 11.66011 3.693852 31.945861  
2002-04-25 13:04:06 51°11.915 2°42.563 11.646435 3.694955 31.961871  
2002-04-25 13:05:06 51°11.883 2°42.525 11.645017 3.696057 31.980593  
2002-04-25 13:06:06 51°11.836 2°42.513 11.641266 3.696057 31.984653  
2002-04-25 13:07:06 51°11.798 2°42.488 11.655125 3.694253 31.965939  
2002-04-25 13:08:06 51°11.76 2°42.471 11.661482 3.69285 31.944328  
2002-04-25 13:09:06 51°11.72 2°42.466 11.668249 3.691547 31.925043  
2002-04-25 13:10:06 51°11.68 2°42.458 11.678994 3.690645 31.91097  
2002-04-25 13:11:06 51°11.643 2°42.443 11.682834 3.690144 31.896712  
2002-04-25 13:12:06 51°11.608 2°42.419 11.688594 3.688841 31.884189  
2002-04-25 13:13:06 51°11.577 2°42.387 11.69705 3.687338 31.86368  
2002-04-25 13:14:06 51°11.549 2°42.349 11.708703 3.688039 31.857633  
2002-04-25 13:15:06 51°11.518 2°42.315 11.693485 3.687639 31.845711  
2002-04-25 13:16:06 51°11.483 2°42.286 11.696227 3.683831 31.821909  
2002-04-25 13:17:06 51°11.444 2°42.266 11.699655 3.682328 31.80747  
2002-04-25 13:18:06 51°11.406 2°42.242 11.705596 3.682628 31.805655  
2002-04-25 13:19:05 51°11.372 2°42.212 11.734928 3.682728 31.800573  
2002-04-25 13:20:06 51°11.343 2°42.169 11.773561 3.685634 31.796928  
2002-04-25 13:21:06 51°11.321 2°42.12 11.759545 3.68884 31.80355  
2002-04-25 13:22:06 51°11.293 2°42.078 11.738765 3.687237 31.812982  
2002-04-25 13:23:06 51°11.256 2°42.053 11.771781 3.686436 31.811329  
2002-04-25 13:24:06 51°11.218 2°42.031 11.753471 3.686837 31.820546  
2002-04-25 13:25:06 51°11.183 2°42.004 11.773926 3.691045 31.846836  
2002-04-25 13:26:06 51°11.15 2°41.973 11.885406 3.696055 31.852603  
2002-04-25 13:27:06 51°11.122 2°41.934 11.925773 3.700764 31.839428  
2002-04-25 13:28:06 51°11.095 2°41.894 11.880119 3.699862 31.830129  
2002-04-25 13:29:06 51°11.066 2°41.857 11.904453 3.698259 31.807436  
2002-04-25 13:30:06 51°11.035 2°41.821 11.900991 3.700964 31.819282  
2002-04-25 13:31:06 51°11.003 2°41.786 11.897528 3.702568 31.838626  
2002-04-25 13:32:06 51°10.973 2°41.747 11.977904 3.704973 31.852265  
2002-04-25 13:33:06 51°10.948 2°41.705 12.051001 3.706174 31.791696  
2002-04-25 13:34:06 51°10.932 2°41.656 12.044818 3.70447 31.724964  
2002-04-25 13:35:06 51°10.915 2°41.605 11.991056 3.702666 31.72237  
2002-04-25 13:36:06 51°10.894 2°41.558 11.95651 3.697656 31.722398  
2002-04-25 13:37:06 51°10.873 2°41.51 11.952413 3.693849 31.711312  
2002-04-25 13:38:06 51°10.86 2°41.462 11.951821 3.688738 31.659206  
2002-04-25 13:39:06 51°10.858 2°41.428 11.944946 3.691744 31.6879  
2002-04-25 13:40:06 51°10.859 2°41.398 11.983183 3.689339 31.67092  
2002-04-25 13:41:06 51°10.873 2°41.34 11.949635 3.690341 31.67783  
2002-04-25 13:42:06 51°10.899 2°41.294 11.969484 3.691644 31.69093  
2002-04-25 13:43:06 51°10.926 2°41.264 12.03777 3.698257 31.710202  
2002-04-25 13:44:06 51°10.958 2°41.247 12.010846 3.710382 31.783943  
2002-04-25 13:45:06 51°10.986 2°41.253 11.980999 3.717899 31.891568  
2002-04-25 13:46:06 51°11.009 2°41.269 11.925636 3.717198 31.909588  
2002-04-25 13:47:06 51°11.028 2°41.292 11.931557 3.711586 31.888741  
2002-04-25 13:48:06 51°11.045 2°41.317 11.950819 3.710584 31.880502  
2002-04-25 13:49:06 51°11.061 2°41.344 11.875059 3.710885 31.891402  
2002-04-25 13:50:06 51°11.076 2°41.37 11.860927 3.70828 31.910017  
2002-04-25 13:51:06 51°11.089 2°41.397 11.855046 3.707178 31.907512  
2002-04-25 13:52:06 51°11.102 2°41.425 11.842779 3.706777 31.911053  
2002-04-25 13:53:06 51°11.115 2°41.451 11.858648 3.706978 31.916328  
2002-04-25 13:54:06 51°11.128 2°41.476 11.862933 3.708481 31.920656  
2002-04-25 13:55:06 51°11.14 2°41.501 11.900991 3.709082 31.924399  
2002-04-25 13:56:06 51°11.152 2°41.526 11.881213 3.709583 31.923829  
2002-04-25 13:57:06 51°11.164 2°41.551 11.888459 3.709883 31.915976  
2002-04-25 13:58:06 51°11.175 2°41.576 11.881896 3.710986 31.924513  
2002-04-25 13:59:06 51°11.192 2°41.619 11.884904 3.710785 31.926618  
2002-04-25 14:00:06 51°11.181 2°41.697 11.912426 3.710785 31.922595  
2002-04-25 14:01:06 51°11.134 2°41.717 11.899669 3.711386 31.912931  
2002-04-25 14:02:06 51°11.104 2°41.709 11.953642 3.707278 31.874306  
2002-04-25 14:03:06 51°11.085 2°41.702 12.010528 3.706876 31.823044  
2002-04-25 14:04:06 51°11.072 2°41.695 11.993513 3.705673 31.800899  
2002-04-25 14:05:06 51°11.059 2°41.68 12.012939 3.704972 31.779557  
2002-04-25 14:06:06 51°11.062 2°41.624 11.982728 3.702767 31.774493  
2002-04-25 14:07:05 51°11.104 2°41.597 12.008208 3.702266 31.751752  
2002-04-25 14:08:06 51°11.15 2°41.68 11.915433 3.714191 31.85419  
2002-04-25 14:09:06 51°11.117 2°41.768 11.947541 3.71309 31.91047  
2002-04-25 14:10:05 51°11.081 2°41.795 11.948042 3.707879 31.857318  
2002-04-25 14:11:06 51°11.055 2°41.806 11.967936 3.700262 31.771219  
2002-04-25 14:12:06 51°11.035 2°41.809 11.98291 3.695652 31.710584  
2002-04-25 14:13:06 51°11.021 2°41.808 11.956647 3.695552 31.702985  
2002-04-25 14:14:06 51°11.011 2°41.807 11.979861 3.693348 31.695897  
2002-04-25 14:15:05 51°11.004 2°41.804 12.020807 3.694049 31.682009  
2002-04-25 14:16:06 51°10.977 2°41.762 12.033678 3.695852 31.661422  
2002-04-25 14:17:06 51°10.883 2°41.848 12.013848 3.693447 31.649101  
2002-04-25 14:18:06 51°10.86 2°42.165 12.099036 3.687134 31.57904  
2002-04-25 14:19:06 51°10.87 2°42.515 12.052364 3.686632 31.530752  
2002-04-25 14:20:06 51°10.918 2°42.865 12.02058 3.684529 31.570075  
2002-04-25 14:21:06 51°10.97 2°43.214 11.945811 3.687334 31.584912  
2002-04-25 14:22:06 51°11.061 2°43.536 11.887092 3.68503 31.615869  
2002-04-25 14:23:06 51°11.132 2°43.874 11.776255 3.682225 31.66676  
2002-04-25 14:24:05 51°11.196 2°44.207 11.815959 3.673508 31.637265  
2002-04-25 14:25:06 51°11.264 2°44.55 11.88413 3.668297 31.558803  
2002-04-25 14:26:05 51°11.33 2°44.881 11.81386 3.669499 31.548408  
2002-04-25 14:27:06 51°11.397 2°45.224 11.776848 3.659179 31.516017  
2002-04-25 14:28:05 51°11.466 2°45.554 11.907005 3.65537 31.442471  
2002-04-25 14:29:06 51°11.545 2°45.891 11.873555 3.652564 31.355626  
2002-04-25 14:30:06 51°11.622 2°46.223 11.893108 3.64575 31.303102  
2002-04-25 14:31:06 51°11.696 2°46.56 11.959788 3.641341 31.234139  
2002-04-25 14:32:05 51°11.772 2°46.881 11.873555 3.634326 31.170552  
2002-04-25 14:33:06 51°11.848 2°47.218 11.90582 3.623004 31.082222  
2002-04-25 14:34:06 51°11.921 2°47.55 11.903087 3.619898 31.061091  
2002-04-25 14:35:06 51°12.008 2°47.87 11.903952 3.615389 31.022015  
2002-04-25 14:36:06 51°12.098 2°48.19 11.918257 3.612483 30.966349  
2002-04-25 14:37:06 51°12.187 2°48.511 11.882808 3.608575 30.932382  
2002-04-25 14:38:06 51°12.293 2°48.816 11.961017 3.601461 30.869179  
2002-04-25 14:39:06 51°12.395 2°49.125 11.924543 3.595449 30.785458  
2002-04-25 14:40:05 51°12.496 2°49.428 11.92222 3.588034 30.709157  
2002-04-25 14:41:06 51°12.601 2°49.739 11.915023 3.581822 30.657182  
2002-04-25 14:42:06 51°12.704 2°50.049 11.999154 3.573405 30.572067  
2002-04-25 14:43:06 51°12.813 2°50.347 11.898302 3.573204 30.540718  
2002-04-25 14:44:06 51°12.922 2°50.643 11.909738 3.563887 30.507235  
2002-04-25 14:45:06 51°13.028 2°50.946 11.999609 3.560882 30.496583  
2002-04-25 14:46:05 51°13.135 2°51.241 11.896206 3.563686 30.466344  
2002-04-25 14:47:05 51°13.239 2°51.543 11.932741 3.556373 30.438379  
2002-04-25 14:48:06 51°13.347 2°51.849 11.992011 3.557174 30.412817  
2002-04-25 14:49:05 51°13.469 2°52.126 12.001475 3.556372 30.367667  
2002-04-25 14:50:06 51°13.595 2°52.415 11.988962 3.557774 30.371432  
2002-04-25 14:51:06 51°13.718 2°52.701 11.983957 3.554668 30.34898  
2002-04-25 14:52:06 51°13.833 2°52.971 12.000701 3.551863 30.336356  
2002-04-25 14:53:06 51°13.929 2°53.148 12.06391 3.554568 30.324556  
2002-04-25 14:54:06 51°14.02 2°53.302 12.039043 3.554968 30.315044  
2002-04-25 14:55:06 51°14.109 2°53.455 12.028539 3.552063 30.287539  
2002-04-25 14:56:06 51°14.195 2°53.602 12.117704 3.549859 30.27743  
2002-04-25 14:57:05 51°14.252 2°53.753 12.33258 3.542343 30.105013  
2002-04-25 14:58:06 51°14.308 2°53.901 12.32176 3.509479 29.665599  
2002-04-25 14:59:06 51°14.349 2°54.011 12.134506 3.495354 29.555814  
2002-04-25 15:00:06 51°14.372 2°54.1 12.053592 3.474718 29.497502  
2002-04-25 15:01:06 51°14.385 2°54.181 12.148988 3.45869 29.386448  
2002-04-25 15:02:06 51°14.391 2°54.257 12.284804 3.450674 29.246878  
2002-04-25 15:03:06 51°14.4 2°54.327 12.442221 3.420119 28.850089  
2002-04-25 15:04:06 51°14.411 2°54.405 12.649609 3.405893 28.586283  
2002-04-25 15:05:06 51°14.417 2°54.504 12.574237 3.455879 28.947255  
2002-04-25 15:06:06 51°14.417 2°54.624 12.280818 3.483128 29.239474  
2002-04-25 15:07:06 51°14.41 2°54.785 12.383352 3.490945 29.463783  
2002-04-25 15:08:06 51°14.381 2°54.944 12.51544 3.485334 29.396065  
2002-04-25 15:09:06 51°14.345 2°55.08 12.124652 3.453475 28.977291  
2002-04-25 15:10:06 51°14.305 2°55.183 12.076045 3.331373 28.148588  
2002-04-25 15:11:06 51°14.269 2°55.252 12.268584 3.270979 27.573436  
2002-04-25 15:12:05 51°14.236 2°55.299 12.298167 3.206083 26.865685  
2002-04-25 15:13:05 51°14.207 2°55.338 12.321488 3.16773 26.476703  
2002-04-25 15:14:06 51°14.145 2°55.398 12.214686 3.202879 26.863268  
2002-04-25 15:15:06 51°14.052 2°55.474 12.448367 3.179146 26.64002  
2002-04-25 15:16:06 51°13.963 2°55.54 12.766509 0.052052 0.333642  
2002-04-25 15:17:06 51°13.891 2°55.591 12.931271 0.055802 0.358245  
2002-04-25 15:18:06 51°13.833 2°55.643 12.978047 0.05521 0.354038  
2002-04-25 15:19:06 51°13.781 2°55.689 13.003821 0.058071 0.372658  
2002-04-25 15:20:06 51°13.742 2°55.737 13.105472 0.060538 0.388631  
2002-04-25 15:21:06 51°13.717 2°55.791 13.229885 0.060636 0.388831  
2002-04-25 15:22:06 51°13.701 2°55.845 13.306483 0.059551 0.381177  
2002-04-25 15:23:06 51°13.691 2°55.893 13.412576 0.059847 0.382683  
2002-04-25 15:24:06 51°13.689 2°55.904 13.56069 0.061031 0.390057